Time;durP1;ratioP1;P1;durP2;ratioP2;P2;SDS_P1;SDS_P2;PMS_P1;PMS_P2;Temp;Humidity;BMP_temperature;BMP_pressure;BME280_temperature;BME280_humidity;BME280_pressure;Samples;Min_cycle;Max_cycle;Signal;HPM_P1;HPM_P2
2021/11/28 00:00:18;;;;;;;9.35;1.80;;;24.50;19.10;;;;;;5042243;28;20088;-67
2021/11/28 00:02:45;;;;;;;6.78;1.67;;;24.40;19.20;;;;;;5044117;28;20166;-67
2021/11/28 00:05:14;;;;;;;8.02;2.08;;;24.40;20.10;;;;;;5041675;28;20081;-67
2021/11/28 00:13:22;;;;;;;6.90;2.30;;;23.80;21.80;;;;;;4980481;28;20075;-68
2021/11/28 00:15:49;;;;;;;6.40;2.40;;;23.70;22.00;;;;;;4978503;28;20522;-67
2021/11/28 00:18:15;;;;;;;10.63;1.95;;;23.50;22.20;;;;;;4946327;28;20175;-67
2021/11/28 00:20:41;;;;;;;8.73;1.80;;;23.40;22.10;;;;;;4961813;28;20125;-69
2021/11/28 00:23:08;;;;;;;13.48;1.70;;;23.30;22.10;;;;;;4963944;28;20083;-67
2021/11/28 00:25:34;;;;;;;12.90;1.67;;;23.20;21.70;;;;;;4979675;28;20075;-67
2021/11/28 00:28:01;;;;;;;8.43;2.30;;;23.00;21.50;;;;;;4961565;28;20446;-67
2021/11/28 00:30:28;;;;;;;12.90;3.20;;;22.90;21.60;;;;;;4961019;28;20087;-66
2021/11/28 00:32:55;;;;;;;16.35;2.70;;;22.70;21.50;;;;;;4978534;28;20075;-67
2021/11/28 00:35:21;;;;;;;11.00;2.70;;;22.60;22.20;;;;;;4962222;28;20095;-68
2021/11/28 00:37:48;;;;;;;13.23;3.25;;;22.50;22.10;;;;;;4963430;28;20085;-65
2021/11/28 00:40:14;;;;;;;15.68;2.83;;;22.40;22.00;;;;;;4964878;28;20591;-66
2021/11/28 00:42:41;;;;;;;17.02;3.13;;;22.30;22.40;;;;;;4965053;28;20154;-68
2021/11/28 00:45:08;;;;;;;18.23;4.40;;;22.10;22.60;;;;;;4964842;28;21117;-66
2021/11/28 00:47:34;;;;;;;12.98;4.72;;;22.00;23.10;;;;;;5017746;28;20144;-67
2021/11/28 00:52:37;;;;;;;22.20;4.80;;;21.80;23.90;;;;;;5060448;28;20581;-67
2021/11/28 00:55:07;;;;;;;23.75;5.57;;;21.60;24.40;;;;;;5040868;28;20759;-66
2021/11/28 00:57:33;;;;;;;26.95;6.13;;;21.50;25.00;;;;;;5043078;28;20077;-68
2021/11/28 01:00:02;;;;;;;45.55;6.93;;;21.40;25.30;;;;;;5040670;28;20073;-68
2021/11/28 01:02:28;;;;;;;39.72;7.45;;;21.20;25.80;;;;;;5040566;28;20097;-69
2021/11/28 01:04:55;;;;;;;34.53;6.68;;;21.10;26.10;;;;;;5040028;28;20065;-67
2021/11/28 01:07:21;;;;;;;31.23;5.57;;;21.00;26.50;;;;;;5055256;28;20090;-66
2021/11/28 01:09:48;;;;;;;45.63;7.78;;;20.90;26.60;;;;;;5054803;28;20080;-68
2021/11/28 01:12:14;;;;;;;51.95;7.55;;;20.90;26.30;;;;;;5039042;28;20130;-69
2021/11/28 01:14:41;;;;;;;53.35;9.02;;;20.70;26.30;;;;;;5056939;28;20547;-68
2021/11/28 01:17:07;;;;;;;45.42;8.02;;;20.60;26.70;;;;;;5037661;28;20531;-70
2021/11/28 01:19:34;;;;;;;45.20;8.55;;;20.60;26.60;;;;;;5038652;28;20108;-67
2021/11/28 01:22:07;;;;;;;46.78;9.25;;;20.40;26.70;;;;;;5056496;28;20096;-68
2021/11/28 01:24:34;;;;;;;63.28;9.45;;;20.30;26.90;;;;;;5038138;28;20089;-67
2021/11/28 01:27:02;;;;;;;49.40;9.27;;;20.20;27.20;;;;;;5057996;28;20594;-67
2021/11/28 01:29:29;;;;;;;57.20;11.15;;;20.10;27.50;;;;;;5038722;28;20158;-68
2021/11/28 01:31:55;;;;;;;58.35;10.52;;;20.10;27.90;;;;;;5027571;28;20089;-67
2021/11/28 01:34:22;;;;;;;64.90;11.00;;;20.00;28.00;;;;;;5037978;28;20206;-70
2021/11/28 01:36:48;;;;;;;41.55;9.45;;;20.00;28.10;;;;;;5056500;28;20171;-67
2021/11/28 01:39:14;;;;;;;51.28;11.32;;;19.90;28.00;;;;;;5056545;28;20069;-68
2021/11/28 01:41:42;;;;;;;48.25;10.82;;;19.80;28.30;;;;;;5056338;28;20176;-70
2021/11/28 01:44:09;;;;;;;53.03;12.13;;;19.80;28.30;;;;;;5056852;28;20400;-69
2021/11/28 01:46:36;;;;;;;46.92;12.60;;;19.70;28.50;;;;;;5032211;28;20098;-69
2021/11/28 01:49:03;;;;;;;35.53;11.95;;;19.60;28.50;;;;;;5031483;28;20069;-64
2021/11/28 01:51:30;;;;;;;36.33;12.70;;;19.60;28.50;;;;;;5031371;28;20093;-67
2021/11/28 01:53:56;;;;;;;;;;;19.60;28.00;;;;;;5016188;28;20546;-71
2021/11/28 01:56:24;;;;;;;31.80;12.80;;;19.50;27.60;;;;;;5030609;28;20010;-74
2021/11/28 01:58:50;;;;;;;37.42;13.73;;;19.50;28.00;;;;;;5031426;28;20116;-72
2021/11/28 02:01:19;;;;;;;38.78;13.43;;;19.50;28.20;;;;;;5034741;28;20093;-72
2021/11/28 02:03:48;;;;;;;35.00;13.52;;;19.40;28.90;;;;;;5035737;28;20074;-70
2021/11/28 02:06:18;;;;;;;43.08;13.63;;;19.30;28.80;;;;;;5035397;28;20069;-70
2021/11/28 02:08:44;;;;;;;45.22;13.82;;;19.30;29.40;;;;;;5051881;28;20152;-69
2021/11/28 02:11:13;;;;;;;43.10;13.82;;;19.30;29.80;;;;;;5035838;28;20084;-68
2021/11/28 02:13:41;;;;;;;36.88;13.68;;;19.20;29.70;;;;;;5035795;28;20084;-70
2021/11/28 02:16:09;;;;;;;35.00;13.38;;;19.30;29.80;;;;;;5035407;28;20188;-72
2021/11/28 02:18:36;;;;;;;42.80;14.23;;;19.10;29.80;;;;;;5053226;28;20196;-69
2021/11/28 02:21:04;;;;;;;40.38;13.70;;;19.10;29.70;;;;;;5034886;28;20089;-70
2021/11/28 02:23:32;;;;;;;46.80;13.85;;;19.10;29.80;;;;;;5018728;28;20069;-73
2021/11/28 02:26:02;;;;;;;42.75;13.55;;;19.00;29.10;;;;;;5035872;28;20516;-71
2021/11/28 02:28:30;;;;;;;37.45;13.60;;;19.00;29.50;;;;;;5035155;28;20081;-71
2021/11/28 02:30:56;;;;;;;43.03;13.60;;;18.90;29.60;;;;;;5034642;28;20076;-72
2021/11/28 02:33:23;;;;;;;30.73;12.80;;;19.00;30.00;;;;;;5035326;28;20077;-72
2021/11/28 02:35:49;;;;;;;42.30;16.88;;;18.90;30.00;;;;;;5035160;28;20069;-71
2021/11/28 02:38:15;;;;;;;;;;;18.80;29.60;;;;;;5035274;28;20078;-71
2021/11/28 02:40:43;;;;;;;55.33;18.92;;;18.70;29.80;;;;;;5041005;28;19957;-70
2021/11/28 02:43:10;;;;;;;56.00;20.70;;;18.70;29.60;;;;;;5034468;28;20091;-72
2021/11/28 02:45:37;;;;;;;62.53;22.48;;;18.70;29.60;;;;;;5035451;28;20081;-71
2021/11/28 02:48:07;;;;;;;92.88;28.13;;;18.70;30.20;;;;;;5034760;28;20093;-74
2021/11/28 02:50:34;;;;;;;77.68;26.27;;;18.60;30.50;;;;;;5034805;28;20089;-73
2021/11/28 02:53:08;;;;;;;92.93;28.00;;;18.60;30.80;;;;;;5051631;28;20228;-74
2021/11/28 02:55:49;;;;;;;99.00;31.55;;;18.60;30.70;;;;;;5036280;28;20090;-77
2021/11/28 02:58:18;;;;;;;100.28;30.80;;;18.50;30.80;;;;;;5052923;28;20099;-73
2021/11/28 03:01:08;;;;;;;112.20;32.50;;;18.50;31.40;;;;;;5036451;28;20131;-76
2021/11/28 03:03:35;;;;;;;108.43;33.33;;;18.50;31.80;;;;;;5054177;28;20069;-73
2021/11/28 03:06:02;;;;;;;115.63;32.58;;;18.40;32.40;;;;;;5058147;28;20078;-72
2021/11/28 03:08:29;;;;;;;109.93;31.85;;;18.40;32.90;;;;;;5044064;28;20477;-73
2021/11/28 03:10:56;;;;;;;99.97;29.35;;;18.50;33.10;;;;;;5034234;28;20096;-73
2021/11/28 03:13:25;;;;;;;102.97;30.10;;;18.40;34.00;;;;;;5034872;28;20070;-70
2021/11/28 03:15:53;;;;;;;84.32;30.30;;;18.30;34.00;;;;;;5069685;28;20073;-71
2021/11/28 03:18:23;;;;;;;84.53;30.50;;;18.30;34.20;;;;;;5039876;28;20072;-67
2021/11/28 03:20:52;;;;;;;79.28;30.35;;;18.30;34.50;;;;;;5033694;28;20069;-68
2021/11/28 03:23:21;;;;;;;90.60;31.35;;;18.20;33.20;;;;;;5041716;28;20103;-69
2021/11/28 03:25:47;;;;;;;94.85;34.53;;;18.20;33.00;;;;;;5055140;28;20077;-68
2021/11/28 03:28:17;;;;;;;103.13;36.85;;;18.00;33.00;;;;;;5036267;28;20078;-67
2021/11/28 03:30:46;;;;;;;103.50;36.42;;;18.00;33.80;;;;;;5035929;28;20104;-68
2021/11/28 03:33:14;;;;;;;107.47;37.70;;;18.00;34.20;;;;;;5035223;28;20544;-67
2021/11/28 03:35:40;;;;;;;99.68;39.10;;;17.90;35.00;;;;;;5034938;28;20077;-71
2021/11/28 03:38:07;;;;;;;97.78;40.47;;;17.80;34.50;;;;;;5052714;28;20069;-69
2021/11/28 03:40:36;;;;;;;88.25;40.80;;;17.70;34.10;;;;;;5041460;28;20074;-69
2021/11/28 03:43:03;;;;;;;103.43;42.80;;;17.60;34.10;;;;;;5033762;28;20086;-67
2021/11/28 03:45:29;;;;;;;104.40;44.95;;;17.50;34.30;;;;;;5034537;28;20074;-69
2021/11/28 03:47:56;;;;;;;108.78;46.17;;;17.50;34.40;;;;;;5034846;28;20069;-68
2021/11/28 03:50:22;;;;;;;;;;;17.50;35.50;;;;;;5046106;28;20140;-71
2021/11/28 03:52:48;;;;;;;116.65;48.88;;;17.40;34.90;;;;;;5052903;28;19989;-69
2021/11/28 03:55:16;;;;;;;;;;;17.40;35.20;;;;;;5054697;28;20215;-72
2021/11/28 03:57:42;;;;;;;;;;;17.40;35.00;;;;;;5071417;28;19986;-71
2021/11/28 04:00:11;;;;;;;108.15;46.72;;;17.40;35.30;;;;;;5070523;28;19991;-69
2021/11/28 04:02:38;;;;;;;104.70;43.40;;;17.40;37.00;;;;;;5056394;28;20100;-70
2021/11/28 04:05:05;;;;;;;95.10;40.70;;;17.40;37.00;;;;;;5072476;28;20542;-69
2021/11/28 04:07:32;;;;;;;109.30;41.55;;;17.20;37.00;;;;;;5071312;28;20542;-69
2021/11/28 04:09:59;;;;;;;104.78;43.63;;;17.20;36.50;;;;;;5055281;28;20079;-70
2021/11/28 04:12:25;;;;;;;100.28;40.47;;;17.30;36.20;;;;;;5054229;28;20605;-70
2021/11/28 04:14:56;;;;;;;118.65;42.40;;;17.20;36.90;;;;;;5052531;28;20101;-68
2021/11/28 04:17:24;;;;;;;96.78;41.70;;;17.20;37.30;;;;;;5072796;28;20118;-70
2021/11/28 04:19:52;;;;;;;117.95;45.03;;;17.10;37.30;;;;;;5074530;28;20077;-69
2021/11/28 04:22:20;;;;;;;114.50;43.90;;;17.00;37.40;;;;;;5053277;28;20180;-71
2021/11/28 04:24:47;;;;;;;103.28;41.40;;;17.00;38.20;;;;;;5052821;28;20069;-68
2021/11/28 04:27:14;;;;;;;117.93;44.95;;;17.00;38.10;;;;;;5053943;28;20093;-68
2021/11/28 04:29:41;;;;;;;113.60;43.72;;;17.00;38.30;;;;;;5054386;28;20443;-67
2021/11/28 04:32:09;;;;;;;103.88;42.05;;;16.90;37.30;;;;;;5053605;28;20085;-67
2021/11/28 04:34:35;;;;;;;101.25;40.95;;;16.80;38.00;;;;;;5054260;28;20077;-68
2021/11/28 04:37:02;;;;;;;111.45;43.38;;;16.90;38.50;;;;;;5051830;28;20164;-69
2021/11/28 04:39:28;;;;;;;106.47;42.55;;;16.90;38.60;;;;;;5053698;28;20176;-69
2021/11/28 04:41:54;;;;;;;;;;;16.80;38.50;;;;;;5038436;28;20179;-67
2021/11/28 04:44:23;;;;;;;104.90;43.17;;;16.80;38.50;;;;;;5069583;28;19960;-69
2021/11/28 04:46:50;;;;;;;95.22;43.20;;;16.70;38.30;;;;;;5051871;28;20084;-69
2021/11/28 04:49:17;;;;;;;118.45;45.92;;;16.70;38.10;;;;;;5070661;28;20065;-69
2021/11/28 04:51:44;;;;;;;108.47;44.67;;;16.60;39.10;;;;;;5052966;28;20166;-67
2021/11/28 04:54:11;;;;;;;;;;;16.60;38.30;;;;;;5071097;28;20087;-69
2021/11/28 04:56:38;;;;;;;98.68;46.80;;;16.50;38.60;;;;;;5054245;28;19965;-71
2021/11/28 04:59:05;;;;;;;101.65;46.95;;;16.40;39.00;;;;;;5036642;28;20451;-70
2021/11/28 05:01:31;;;;;;;113.45;48.33;;;16.40;39.30;;;;;;5051494;28;20090;-71
2021/11/28 05:03:57;;;;;;;;;;;16.30;39.00;;;;;;5059961;28;20550;-69
2021/11/28 05:06:24;;;;;;;115.57;50.95;;;16.30;39.30;;;;;;5053720;28;19980;-69
2021/11/28 05:08:50;;;;;;;115.50;51.55;;;16.40;39.50;;;;;;5052320;28;20077;-70
2021/11/28 05:11:16;;;;;;;133.82;52.92;;;16.40;39.70;;;;;;5051838;28;20123;-70
2021/11/28 05:13:42;;;;;;;;;;;16.40;39.70;;;;;;5070943;28;20562;-68
2021/11/28 05:16:09;;;;;;;139.25;53.78;;;16.30;39.80;;;;;;5069135;28;19957;-72
2021/11/28 05:18:35;;;;;;;;;;;16.30;40.70;;;;;;5052636;28;20096;-68
2021/11/28 05:21:01;;;;;;;137.40;60.58;;;16.20;40.30;;;;;;5068524;28;19979;-68
2021/11/28 05:23:27;;;;;;;;;;;16.20;40.30;;;;;;5063100;28;20672;-68
2021/11/28 05:25:54;;;;;;;143.15;57.58;;;16.20;40.70;;;;;;5047250;28;20001;-67
2021/11/28 05:28:20;;;;;;;;;;;16.20;40.30;;;;;;5085834;28;20069;-69
2021/11/28 05:30:46;;;;;;;139.65;58.85;;;16.20;40.60;;;;;;5067519;28;20035;-68
2021/11/28 05:33:13;;;;;;;158.07;61.22;;;16.10;40.10;;;;;;5050100;28;20074;-69
2021/11/28 05:35:39;;;;;;;;;;;16.10;40.00;;;;;;5051420;28;20110;-69
2021/11/28 05:38:05;;;;;;;154.75;67.30;;;16.20;39.90;;;;;;5051625;28;20012;-66
2021/11/28 05:40:32;;;;;;;132.98;62.70;;;16.10;39.90;;;;;;5051240;28;20076;-69
2021/11/28 05:42:58;;;;;;;;;;;16.10;40.40;;;;;;5053258;28;20171;-64
2021/11/28 05:45:26;;;;;;;143.30;59.13;;;16.00;40.60;;;;;;5038414;28;20411;-66
2021/11/28 05:47:53;;;;;;;116.63;52.42;;;16.00;40.40;;;;;;5070536;28;20073;-65
2021/11/28 05:50:22;;;;;;;120.40;50.72;;;16.00;38.20;;;;;;5051780;28;20147;-68
2021/11/28 05:52:49;;;;;;;100.18;48.33;;;16.00;38.10;;;;;;5051926;28;20120;-66
2021/11/28 05:55:17;;;;;;;101.50;48.85;;;16.00;38.30;;;;;;5053471;28;20082;-68
2021/11/28 05:57:44;;;;;;;101.28;48.00;;;15.90;38.70;;;;;;5070803;28;20085;-68
2021/11/28 06:00:12;;;;;;;109.97;50.38;;;15.90;38.50;;;;;;5064334;28;20081;-67
2021/11/28 06:02:40;;;;;;;120.07;49.15;;;15.80;38.80;;;;;;5057118;28;20092;-68
2021/11/28 06:05:08;;;;;;;106.63;47.03;;;15.80;39.30;;;;;;5079622;28;20124;-66
2021/11/28 06:07:34;;;;;;;112.03;47.08;;;15.80;39.90;;;;;;5083788;28;20073;-66
2021/11/28 06:10:01;;;;;;;109.80;48.75;;;15.70;40.30;;;;;;5055292;28;20436;-67
2021/11/28 06:12:27;;;;;;;;;;;15.70;39.10;;;;;;5052796;28;20089;-69
2021/11/28 06:14:53;;;;;;;123.55;50.42;;;15.60;39.30;;;;;;5069317;28;19957;-68
2021/11/28 06:17:19;;;;;;;;;;;15.60;39.70;;;;;;5053742;28;20073;-67
2021/11/28 06:19:46;;;;;;;139.65;57.03;;;15.60;39.90;;;;;;5069528;28;19957;-67
2021/11/28 06:22:12;;;;;;;;;;;15.60;40.10;;;;;;5053022;28;20176;-69
2021/11/28 06:24:39;;;;;;;160.75;61.35;;;15.60;40.70;;;;;;5076349;28;20342;-66
2021/11/28 06:27:05;;;;;;;;;;;15.60;40.70;;;;;;5071411;28;20088;-67
2021/11/28 06:29:33;;;;;;;142.37;59.40;;;15.70;40.30;;;;;;5068993;28;20456;-68
2021/11/28 06:31:59;;;;;;;151.38;59.63;;;15.60;40.30;;;;;;5051659;28;20073;-70
2021/11/28 06:34:26;;;;;;;141.57;59.13;;;15.60;40.50;;;;;;5036300;28;20081;-67
2021/11/28 06:36:54;;;;;;;138.82;58.53;;;15.60;40.80;;;;;;5069903;28;20100;-68
2021/11/28 06:39:21;;;;;;;148.77;55.55;;;15.60;41.00;;;;;;5070292;28;20077;-69
2021/11/28 06:41:48;;;;;;;127.35;53.90;;;15.50;41.60;;;;;;5052898;28;20598;-67
2021/11/28 06:44:15;;;;;;;138.90;53.67;;;15.50;41.10;;;;;;5054038;28;20479;-65
2021/11/28 06:46:41;;;;;;;;;;;15.50;41.30;;;;;;5072211;28;20545;-65
2021/11/28 06:49:07;;;;;;;135.40;52.35;;;15.40;41.60;;;;;;5071290;28;19957;-64
2021/11/28 06:51:35;;;;;;;136.32;56.58;;;15.40;42.10;;;;;;5056868;28;20120;-65
2021/11/28 06:54:01;;;;;;;153.35;57.30;;;15.40;41.60;;;;;;5056993;28;20073;-68
2021/11/28 06:56:27;;;;;;;;;;;15.40;41.30;;;;;;5060223;28;20077;-68
2021/11/28 06:58:53;;;;;;;134.27;54.20;;;15.40;41.60;;;;;;5074393;28;20396;-69
2021/11/28 07:01:19;;;;;;;;;;;15.40;41.90;;;;;;5067075;28;20100;-69
2021/11/28 07:03:46;;;;;;;145.88;54.60;;;15.40;41.80;;;;;;5075470;28;20307;-66
2021/11/28 07:06:12;;;;;;;;;;;15.50;42.50;;;;;;5073477;28;20073;-67
2021/11/28 07:08:39;;;;;;;177.70;56.83;;;15.40;42.10;;;;;;5072044;28;20026;-66
2021/11/28 07:11:05;;;;;;;165.98;55.60;;;15.40;41.60;;;;;;5058493;28;20073;-67
2021/11/28 07:13:31;;;;;;;;;;;15.40;41.90;;;;;;5059381;28;20081;-69
2021/11/28 07:15:58;;;;;;;157.13;56.05;;;15.30;40.70;;;;;;5058777;28;19961;-70
2021/11/28 07:18:24;;;;;;;197.85;59.90;;;15.20;42.00;;;;;;5064138;28;20080;-68
2021/11/28 07:20:51;;;;;;;190.50;60.00;;;15.20;41.20;;;;;;5064338;28;20085;-68
2021/11/28 07:23:17;;;;;;;;;;;15.20;41.00;;;;;;5057335;28;20081;-68
2021/11/28 07:25:43;;;;;;;225.63;65.60;;;15.20;40.70;;;;;;5070716;28;20704;-68
2021/11/28 07:28:09;;;;;;;;;;;15.20;40.30;;;;;;5073699;28;20068;-67
2021/11/28 07:30:35;;;;;;;217.07;67.30;;;15.20;40.20;;;;;;5060526;28;20437;-67
2021/11/28 07:33:02;;;;;;;;;;;15.20;39.50;;;;;;5071985;28;20077;-69
2021/11/28 07:35:28;;;;;;;210.43;64.03;;;15.20;39.10;;;;;;5072358;28;20494;-68
2021/11/28 07:37:54;;;;;;;217.75;67.68;;;15.10;38.80;;;;;;5057030;28;20126;-67
2021/11/28 07:40:21;;;;;;;227.38;65.95;;;15.20;39.40;;;;;;5057927;28;20077;-67
2021/11/28 07:42:47;;;;;;;;;;;15.20;39.30;;;;;;5071945;28;20146;-68
2021/11/28 07:45:13;;;;;;;207.73;65.95;;;15.20;39.70;;;;;;5071020;28;20425;-68
2021/11/28 07:47:40;;;;;;;216.10;67.75;;;15.10;39.70;;;;;;5056990;28;20137;-69
2021/11/28 07:50:06;;;;;;;;;;;15.20;39.70;;;;;;5058395;28;20772;-68
2021/11/28 07:52:33;;;;;;;193.57;64.75;;;15.20;39.70;;;;;;5041502;28;19985;-70
2021/11/28 07:54:59;;;;;;;;;;;15.10;40.50;;;;;;5060416;28;20077;-69
2021/11/28 07:57:25;;;;;;;182.05;62.72;;;15.10;39.90;;;;;;5069470;28;19996;-68
2021/11/28 07:59:52;;;;;;;181.25;61.08;;;15.00;39.60;;;;;;5069824;28;20077;-67
2021/11/28 08:02:19;;;;;;;202.80;61.25;;;15.00;39.40;;;;;;5057032;28;20092;-65
2021/11/28 08:04:46;;;;;;;179.48;57.13;;;15.00;39.90;;;;;;5057073;28;20069;-65
2021/11/28 08:07:13;;;;;;;185.30;53.92;;;15.00;39.80;;;;;;5070717;28;20073;-67
2021/11/28 08:09:39;;;;;;;;;;;15.00;39.40;;;;;;5059836;28;20073;-68
2021/11/28 08:12:05;;;;;;;157.25;50.83;;;15.00;39.00;;;;;;5069704;28;19968;-67
2021/11/28 08:14:32;;;;;;;162.35;46.80;;;15.00;38.70;;;;;;5057755;28;20080;-67
2021/11/28 08:16:58;;;;;;;;;;;15.00;38.80;;;;;;5070794;28;20076;-65
2021/11/28 08:19:24;;;;;;;147.70;42.10;;;14.90;39.30;;;;;;5056875;28;19968;-66
2021/11/28 08:21:50;;;;;;;;;;;14.90;38.20;;;;;;5056448;28;20101;-67
2021/11/28 08:24:16;;;;;;;147.88;39.58;;;14.90;38.90;;;;;;5059157;28;20055;-66
2021/11/28 08:26:43;;;;;;;141.40;40.65;;;14.90;38.10;;;;;;5058158;28;20585;-64
2021/11/28 08:29:09;;;;;;;152.40;41.92;;;14.90;38.00;;;;;;5057569;28;20089;-65
2021/11/28 08:31:36;;;;;;;;;;;14.90;38.10;;;;;;5070161;28;20080;-68
2021/11/28 08:34:02;;;;;;;125.15;39.72;;;14.80;38.60;;;;;;5057936;28;19969;-69
2021/11/28 08:36:29;;;;;;;121.30;37.88;;;14.80;38.60;;;;;;5056995;28;20077;-69
2021/11/28 08:38:55;;;;;;;;;;;14.80;39.10;;;;;;5060539;28;20099;-67
2021/11/28 08:41:27;;;;;;;149.90;44.30;;;14.70;39.60;;;;;;5070170;28;20473;-67
2021/11/28 08:43:56;;;;;;;150.43;45.25;;;14.60;39.50;;;;;;5070053;28;20166;-69
2021/11/28 08:46:23;;;;;;;135.50;45.15;;;14.60;39.80;;;;;;5058776;28;20073;-67
2021/11/28 08:48:53;;;;;;;165.30;45.13;;;14.50;39.40;;;;;;5070283;28;20546;-67
2021/11/28 08:51:21;;;;;;;125.68;41.08;;;14.50;39.80;;;;;;5057571;28;20124;-67
2021/11/28 08:53:47;;;;;;;135.80;44.65;;;14.50;40.60;;;;;;5057092;28;20070;-69
2021/11/28 08:56:14;;;;;;;156.43;42.17;;;14.50;40.20;;;;;;5056009;28;20164;-70
2021/11/28 08:58:41;;;;;;;145.60;41.85;;;14.50;40.90;;;;;;5055763;28;20444;-67
2021/11/28 09:01:08;;;;;;;127.15;41.10;;;14.40;40.30;;;;;;5069620;28;20524;-67
2021/11/28 09:03:34;;;;;;;153.85;40.90;;;14.40;40.70;;;;;;5056509;28;20420;-67
2021/11/28 09:06:01;;;;;;;131.15;40.42;;;14.30;39.80;;;;;;5054425;28;20074;-70
2021/11/28 09:08:27;;;;;;;;;;;14.40;40.20;;;;;;5057760;28;20114;-67
2021/11/28 09:10:53;;;;;;;141.70;40.58;;;14.30;40.00;;;;;;5056119;28;19957;-68
2021/11/28 09:13:20;;;;;;;145.45;39.53;;;14.30;41.00;;;;;;5055322;28;20116;-66
2021/11/28 09:15:47;;;;;;;144.35;40.28;;;14.20;40.50;;;;;;5062210;28;20439;-68
2021/11/28 09:18:20;;;;;;;132.30;38.80;;;14.20;40.80;;;;;;5057543;28;20073;-69
2021/11/28 09:20:51;;;;;;;130.73;40.40;;;14.20;40.60;;;;;;5069752;28;20073;-69
2021/11/28 09:25:44;;;;;;;131.50;38.92;;;14.20;40.80;;;;;;5070052;28;20065;-67
2021/11/28 09:28:10;;;;;;;135.43;36.58;;;14.10;40.90;;;;;;5057564;28;20108;-69
2021/11/28 09:30:37;;;;;;;112.75;34.47;;;14.00;40.70;;;;;;5069674;28;20097;-65
2021/11/28 09:33:04;;;;;;;;;;;14.00;41.00;;;;;;5054074;28;20422;-67
2021/11/28 09:35:34;;;;;;;106.40;34.65;;;13.90;40.30;;;;;;5055963;28;20028;-67
2021/11/28 09:38:01;;;;;;;133.68;36.60;;;13.90;39.90;;;;;;5068818;28;20159;-68
2021/11/28 09:40:27;;;;;;;135.43;36.38;;;13.90;41.00;;;;;;5061846;28;20444;-67
2021/11/28 09:42:57;;;;;;;115.55;34.08;;;13.80;40.90;;;;;;5055076;28;20089;-66
2021/11/28 09:45:25;;;;;;;122.18;31.25;;;13.80;40.80;;;;;;5055202;28;20540;-68
2021/11/28 09:47:53;;;;;;;121.47;30.40;;;13.70;41.10;;;;;;5056800;28;20151;-65
2021/11/28 09:50:21;;;;;;;111.20;28.58;;;13.70;40.40;;;;;;5069288;28;20085;-66
2021/11/28 09:52:50;;;;;;;90.30;26.98;;;13.70;40.00;;;;;;5056466;28;20217;-67
2021/11/28 09:55:18;;;;;;;116.22;26.60;;;13.60;38.50;;;;;;5060338;28;20095;-68
2021/11/28 09:57:44;;;;;;;92.22;23.40;;;13.60;38.70;;;;;;5057258;28;20473;-67
2021/11/28 10:00:14;;;;;;;103.28;23.80;;;13.70;39.00;;;;;;5069740;28;20077;-68
2021/11/28 10:02:41;;;;;;;87.40;21.85;;;13.60;38.60;;;;;;5058246;28;21149;-66
2021/11/28 10:05:12;;;;;;;98.22;22.70;;;13.60;38.40;;;;;;5055026;28;20069;-67
2021/11/28 10:07:48;;;;;;;99.57;23.63;;;13.60;38.30;;;;;;5054372;28;20077;-67
2021/11/28 10:10:17;;;;;;;107.95;22.33;;;13.60;38.10;;;;;;5055635;28;20156;-67
2021/11/28 10:12:51;;;;;;;92.20;21.65;;;13.60;38.10;;;;;;5054160;28;20129;-65
2021/11/28 10:15:24;;;;;;;99.47;21.55;;;13.60;37.70;;;;;;5059479;28;20093;-68
2021/11/28 10:17:51;;;;;;;88.60;20.45;;;13.60;38.80;;;;;;5055898;28;20116;-68
2021/11/28 10:20:20;;;;;;;93.57;22.08;;;13.50;38.90;;;;;;5061218;28;20134;-67
2021/11/28 10:22:47;;;;;;;92.65;20.45;;;13.50;39.00;;;;;;5073846;28;20088;-68
2021/11/28 10:25:21;;;;;;;89.30;18.88;;;13.50;37.60;;;;;;5061687;28;20158;-66
2021/11/28 10:27:50;;;;;;;87.82;18.40;;;13.50;37.60;;;;;;5071706;28;20069;-66
2021/11/28 10:30:37;;;;;;;92.85;17.52;;;13.50;37.70;;;;;;5059518;28;20521;-68
2021/11/28 10:33:13;;;;;;;88.05;17.38;;;13.50;37.00;;;;;;5072475;28;20118;-67
2021/11/28 10:35:59;;;;;;;80.38;18.02;;;13.50;37.10;;;;;;5062575;28;20076;-67
2021/11/28 10:38:34;;;;;;;82.05;16.77;;;13.50;37.60;;;;;;5061380;28;20112;-66
2021/11/28 10:41:01;;;;;;;88.35;17.63;;;13.50;37.10;;;;;;5061853;28;20061;-67
2021/11/28 10:43:31;;;;;;;80.53;17.10;;;13.40;37.10;;;;;;5072536;28;20069;-65
2021/11/28 10:45:58;;;;;;;96.68;16.77;;;13.40;37.20;;;;;;5072957;28;20065;-66
2021/11/28 10:48:27;;;;;;;66.88;15.93;;;13.50;36.80;;;;;;5057775;28;20435;-65
2021/11/28 10:50:55;;;;;;;84.93;15.52;;;13.50;37.50;;;;;;5059207;28;20120;-65
2021/11/28 10:53:23;;;;;;;75.82;15.45;;;13.50;37.30;;;;;;5064545;28;20073;-68
2021/11/28 10:55:52;;;;;;;76.60;15.25;;;13.40;38.40;;;;;;5059345;28;20222;-66
2021/11/28 10:58:27;;;;;;;76.78;15.23;;;13.40;37.30;;;;;;5041747;28;20088;-66
2021/11/28 11:00:53;;;;;;;74.97;14.80;;;13.40;37.50;;;;;;5063510;28;20073;-65
2021/11/28 11:03:36;;;;;;;77.63;15.50;;;13.40;37.20;;;;;;5063032;28;20115;-66
2021/11/28 11:06:16;;;;;;;70.13;15.32;;;13.30;36.40;;;;;;5060816;28;20077;-66
2021/11/28 11:08:43;;;;;;;59.80;15.63;;;13.20;36.20;;;;;;5059278;28;20401;-67
2021/11/28 11:11:13;;;;;;;74.78;14.55;;;13.20;36.80;;;;;;5059139;28;20085;-69
2021/11/28 11:14:00;;;;;;;71.05;14.70;;;13.20;37.40;;;;;;5065137;28;20160;-68
2021/11/28 11:16:41;;;;;;;73.32;14.88;;;13.20;36.70;;;;;;5060575;28;20558;-66
2021/11/28 11:19:27;;;;;;;70.25;14.65;;;13.20;36.90;;;;;;5060603;28;20439;-67
2021/11/28 11:22:18;;;;;;;75.65;13.57;;;13.20;36.30;;;;;;5058488;28;20085;-65
2021/11/28 11:24:58;;;;;;;72.70;14.10;;;13.20;36.00;;;;;;5072479;28;20203;-67
2021/11/28 11:27:37;;;;;;;66.40;13.65;;;13.20;35.60;;;;;;5071668;28;20073;-66
2021/11/28 11:30:18;;;;;;;66.85;13.30;;;13.20;35.70;;;;;;5059570;28;20073;-65
2021/11/28 11:33:00;;;;;;;94.95;13.20;;;13.20;35.80;;;;;;5071802;28;20077;-70
2021/11/28 11:35:44;;;;;;;66.05;13.63;;;13.20;36.10;;;;;;5059991;28;20069;-68
2021/11/28 11:38:16;;;;;;;57.38;13.00;;;13.10;36.00;;;;;;5057873;28;20073;-66
2021/11/28 11:40:43;;;;;;;61.90;12.10;;;13.10;36.30;;;;;;5071012;28;20087;-69
2021/11/28 11:43:10;;;;;;;55.83;12.85;;;13.00;37.00;;;;;;5056977;28;20471;-67
2021/11/28 11:45:38;;;;;;;77.32;12.80;;;12.90;37.00;;;;;;5072363;28;20376;-66
2021/11/28 11:48:07;;;;;;;63.58;11.75;;;13.00;36.50;;;;;;5056793;28;20073;-69
2021/11/28 11:50:35;;;;;;;65.68;12.18;;;13.00;37.00;;;;;;5058752;28;20568;-65
2021/11/28 11:53:05;;;;;;;61.67;11.68;;;12.90;36.90;;;;;;5056699;28;20187;-67
2021/11/28 11:55:37;;;;;;;71.28;11.68;;;12.90;37.20;;;;;;5058924;28;20165;-67
2021/11/28 11:58:42;;;;;;;50.15;10.25;;;12.90;37.30;;;;;;5059985;28;20764;-68
2021/11/28 12:01:18;;;;;;;52.80;10.00;;;12.80;36.70;;;;;;5048383;28;20132;-69
2021/11/28 12:03:54;;;;;;;50.17;11.55;;;12.70;37.00;;;;;;5070400;28;20077;-67
2021/11/28 12:06:59;;;;;;;66.15;10.52;;;12.70;37.70;;;;;;5062197;28;20092;-67
2021/11/28 12:09:27;;;;;;;46.75;10.55;;;12.70;37.70;;;;;;5027867;28;20923;-69
2021/11/28 12:12:06;;;;;;;49.88;9.82;;;12.60;38.00;;;;;;5011632;28;20078;-68
2021/11/28 12:14:33;;;;;;;52.13;10.27;;;12.60;37.80;;;;;;5029642;28;20081;-68
2021/11/28 12:17:00;;;;;;;64.75;9.80;;;12.60;38.00;;;;;;5029254;28;20128;-69
2021/11/28 12:19:38;;;;;;;;;;;12.60;37.90;;;;;;5012967;28;20080;-72
2021/11/28 12:22:06;;;;;;;50.38;9.68;;;12.70;38.40;;;;;;5028723;28;20068;-69
2021/11/28 12:24:33;;;;;;;48.05;10.32;;;12.60;39.00;;;;;;5012912;28;20571;-66
2021/11/28 12:27:05;;;;;;;46.83;9.95;;;12.60;39.60;;;;;;5012513;28;20127;-67
2021/11/28 12:29:37;;;;;;;55.33;10.77;;;13.10;39.90;;;;;;5028103;28;20117;-67
2021/11/28 12:32:17;;;;;;;49.92;10.95;;;12.50;39.90;;;;;;5011802;28;20097;-66
2021/11/28 12:34:46;;;;;;;50.47;11.00;;;12.50;39.70;;;;;;5028134;28;20559;-67
2021/11/28 12:37:23;;;;;;;54.15;10.13;;;12.50;39.50;;;;;;5028426;28;20313;-67
2021/11/28 12:39:51;;;;;;;55.38;10.10;;;12.50;39.60;;;;;;5047029;28;20585;-67
2021/11/28 12:42:21;;;;;;;57.67;10.75;;;12.40;39.40;;;;;;5062226;28;20095;-66
2021/11/28 12:44:50;;;;;;;40.55;10.88;;;12.40;39.40;;;;;;5070045;28;20096;-68
2021/11/28 12:47:20;;;;;;;50.28;10.23;;;12.40;40.00;;;;;;5070943;28;20077;-66
2021/11/28 12:49:54;;;;;;;64.18;10.73;;;12.30;40.30;;;;;;5056678;28;20092;-67
2021/11/28 12:52:26;;;;;;;50.42;10.63;;;12.30;40.40;;;;;;5057154;28;20590;-66